createdAt,value
2018-09-05T00:00:25.709Z,24.90
2018-09-05T00:01:30.024Z,24.90
2018-09-05T00:02:34.495Z,24.90
2018-09-05T00:03:38.813Z,24.90
2018-09-05T00:04:43.254Z,24.90
2018-09-05T00:05:47.532Z,24.90
2018-09-05T00:06:52.026Z,24.90
2018-09-05T00:07:56.291Z,24.90
2018-09-05T00:09:00.830Z,24.90
2018-09-05T00:10:05.097Z,24.90
2018-09-05T00:11:09.551Z,24.90
2018-09-05T00:12:13.855Z,24.90
2018-09-05T00:13:18.096Z,24.90
2018-09-05T00:14:22.595Z,24.90
2018-09-05T00:15:27.031Z,24.90
2018-09-05T00:16:31.487Z,24.90
2018-09-05T00:17:35.783Z,24.90
2018-09-05T00:18:40.197Z,24.90
2018-09-05T00:19:44.464Z,24.90
2018-09-05T00:20:48.693Z,24.90
2018-09-05T00:21:53.200Z,24.90
2018-09-05T00:22:57.460Z,24.90
2018-09-05T00:24:02.001Z,24.90
2018-09-05T00:25:06.396Z,24.90
2018-09-05T00:26:10.831Z,24.90
2018-09-05T00:27:15.109Z,24.90
2018-09-05T00:28:19.383Z,24.90
2018-09-05T00:29:23.874Z,24.90
2018-09-05T00:30:28.335Z,24.90
2018-09-05T00:31:32.605Z,24.90
2018-09-05T00:32:37.115Z,24.90
2018-09-05T00:33:41.501Z,24.90
2018-09-05T00:34:45.983Z,24.90
2018-09-05T00:35:50.534Z,24.90
2018-09-05T00:36:54.831Z,24.90
2018-09-05T00:37:59.321Z,24.90
2018-09-05T00:39:03.777Z,24.90
2018-09-05T00:40:08.236Z,24.90
2018-09-05T00:41:12.576Z,24.90
2018-09-05T00:42:16.894Z,24.90
2018-09-05T00:43:21.169Z,24.90
2018-09-05T00:44:25.680Z,24.90
2018-09-05T00:45:30.157Z,24.90
2018-09-05T00:46:34.432Z,24.90
2018-09-05T00:47:38.727Z,24.90
2018-09-05T00:48:43.151Z,24.90
2018-09-05T00:49:47.623Z,24.90
2018-09-05T00:50:51.972Z,24.90
2018-09-05T00:51:56.402Z,24.90
2018-09-05T00:53:00.919Z,24.90
2018-09-05T00:54:05.213Z,24.90
2018-09-05T00:55:09.660Z,24.90
2018-09-05T00:56:13.897Z,24.90
2018-09-05T00:57:18.329Z,24.90
2018-09-05T00:58:22.800Z,24.90
2018-09-05T00:59:27.308Z,24.90
2018-09-05T01:00:31.624Z,24.90
2018-09-05T01:01:35.925Z,24.90
2018-09-05T01:02:40.494Z,24.80
2018-09-05T01:03:45.000Z,24.90
2018-09-05T01:04:49.270Z,24.90
2018-09-05T01:05:53.722Z,24.90
2018-09-05T01:06:58.002Z,24.90
2018-09-05T01:08:02.589Z,24.90
2018-09-05T01:09:07.032Z,24.90
2018-09-05T01:10:11.335Z,24.90
2018-09-05T01:11:15.850Z,24.90
2018-09-05T01:12:20.394Z,24.90
2018-09-05T01:13:24.742Z,24.90
2018-09-05T01:14:29.076Z,24.80
2018-09-05T01:15:33.527Z,24.90
2018-09-05T01:16:37.851Z,24.90
2018-09-05T01:17:42.163Z,24.90
2018-09-05T01:18:46.427Z,24.90
2018-09-05T01:19:50.657Z,24.90
2018-09-05T01:20:55.222Z,24.90
2018-09-05T01:21:59.508Z,24.80
2018-09-05T01:23:03.916Z,24.80
2018-09-05T01:24:08.200Z,24.80
2018-09-05T01:25:12.725Z,24.80
2018-09-05T01:26:16.973Z,24.80
2018-09-05T01:27:21.389Z,24.80
2018-09-05T01:28:25.686Z,24.80
2018-09-05T01:29:30.186Z,24.90
2018-09-05T01:30:34.691Z,24.80
2018-09-05T01:31:39.099Z,24.80
2018-09-05T01:32:43.572Z,24.80
2018-09-05T01:33:47.900Z,24.80
2018-09-05T01:34:52.159Z,24.80
2018-09-05T01:35:56.489Z,24.80
2018-09-05T01:37:01.024Z,24.80
2018-09-05T01:38:05.551Z,24.80
2018-09-05T01:39:09.849Z,24.80
2018-09-05T01:40:14.140Z,24.80
2018-09-05T01:41:18.627Z,24.80
2018-09-05T01:42:22.885Z,24.80
2018-09-05T01:43:27.317Z,24.80
2018-09-05T01:44:31.838Z,24.80
2018-09-05T01:45:36.231Z,24.80
2018-09-05T01:46:40.652Z,24.80
2018-09-05T01:47:45.190Z,24.80
2018-09-05T01:48:49.741Z,24.80
2018-09-05T01:49:54.276Z,24.80
2018-09-05T01:50:58.766Z,24.80
2018-09-05T01:52:03.045Z,24.80
2018-09-05T01:53:07.504Z,24.80
2018-09-05T01:54:11.774Z,24.80
2018-09-05T01:55:16.203Z,24.80
2018-09-05T01:56:20.728Z,24.80
2018-09-05T01:57:24.963Z,24.80
2018-09-05T01:58:29.572Z,24.80
2018-09-05T01:59:34.081Z,24.80
2018-09-05T02:00:38.560Z,24.80
2018-09-05T02:01:42.990Z,24.80
2018-09-05T02:02:47.424Z,24.80
2018-09-05T02:03:51.769Z,24.80
2018-09-05T02:04:56.198Z,24.80
2018-09-05T02:06:00.491Z,24.80
2018-09-05T02:07:04.941Z,24.80
2018-09-05T02:08:09.281Z,24.80
2018-09-05T02:09:13.784Z,24.80
2018-09-05T02:10:18.283Z,24.80
2018-09-05T02:11:22.771Z,24.80
2018-09-05T02:12:27.072Z,24.80
2018-09-05T02:13:31.388Z,24.80
2018-09-05T02:14:35.943Z,24.80
2018-09-05T02:15:40.457Z,24.80
2018-09-05T02:16:44.900Z,24.80
2018-09-05T02:17:49.247Z,24.80
2018-09-05T02:18:53.603Z,24.80
2018-09-05T02:19:57.882Z,24.80
2018-09-05T02:21:02.321Z,24.80
2018-09-05T02:22:06.640Z,24.80
2018-09-05T02:23:11.127Z,24.80
2018-09-05T02:24:15.454Z,24.80
2018-09-05T02:25:19.924Z,24.80
2018-09-05T02:26:24.279Z,24.80
2018-09-05T02:27:28.758Z,24.80
2018-09-05T02:28:33.157Z,24.80
2018-09-05T02:29:37.562Z,24.80
2018-09-05T02:30:42.094Z,24.80
2018-09-05T02:31:46.527Z,24.80
2018-09-05T02:32:51.071Z,24.80
2018-09-05T02:33:55.592Z,24.80
2018-09-05T02:34:59.966Z,24.80
2018-09-05T02:36:04.491Z,24.80
2018-09-05T02:37:09.008Z,24.80
2018-09-05T02:38:13.535Z,24.80
2018-09-05T02:39:18.146Z,24.80
2018-09-05T02:40:22.630Z,24.80
2018-09-05T02:41:26.818Z,24.80
2018-09-05T02:42:31.145Z,24.80
2018-09-05T02:43:35.589Z,24.80
2018-09-05T02:44:39.906Z,24.80
2018-09-05T02:45:44.372Z,24.80
2018-09-05T02:46:48.903Z,24.80
2018-09-05T02:47:53.210Z,24.80
2018-09-05T02:48:57.499Z,24.80
2018-09-05T02:50:01.808Z,24.80
2018-09-05T02:51:06.059Z,24.80
2018-09-05T02:52:10.651Z,24.80
2018-09-05T02:53:14.908Z,24.80
2018-09-05T02:54:19.355Z,24.80
2018-09-05T02:55:23.611Z,24.70
2018-09-05T02:56:28.223Z,24.80
2018-09-05T02:57:32.558Z,24.80
2018-09-05T02:58:36.853Z,24.80
2018-09-05T02:59:41.131Z,24.70
2018-09-05T03:00:45.427Z,24.80
2018-09-05T03:01:49.917Z,24.80
2018-09-05T03:02:54.255Z,24.70
2018-09-05T03:03:58.583Z,24.70
2018-09-05T03:05:03.062Z,24.70
2018-09-05T03:06:07.602Z,24.70
2018-09-05T03:07:12.151Z,24.70
2018-09-05T03:08:16.555Z,24.70
2018-09-05T03:09:21.203Z,24.70
2018-09-05T03:10:25.698Z,24.70
2018-09-05T03:11:30.333Z,24.70
2018-09-05T03:12:34.659Z,24.70
2018-09-05T03:13:39.310Z,24.70
2018-09-05T03:14:43.631Z,24.70
2018-09-05T03:15:47.978Z,24.70
2018-09-05T03:16:52.405Z,24.70
2018-09-05T03:17:57.245Z,24.70
2018-09-05T03:19:04.107Z,24.70
2018-09-05T03:20:05.903Z,24.70
2018-09-05T03:21:10.229Z,24.70
2018-09-05T03:22:14.808Z,24.70
2018-09-05T03:23:19.390Z,24.70
2018-09-05T03:24:23.973Z,24.70
2018-09-05T03:25:28.553Z,24.70
2018-09-05T03:26:33.193Z,24.70
2018-09-05T03:27:37.726Z,24.70
2018-09-05T03:28:42.013Z,24.70
2018-09-05T03:29:46.233Z,24.70
2018-09-05T03:30:50.767Z,24.70
2018-09-05T03:31:55.116Z,24.70
2018-09-05T03:32:59.635Z,24.70
2018-09-05T03:34:04.123Z,24.70
2018-09-05T03:35:08.582Z,24.70
2018-09-05T03:36:12.888Z,24.70
2018-09-05T03:37:17.238Z,24.70
2018-09-05T03:38:21.770Z,24.70
2018-09-05T03:39:26.063Z,24.70
2018-09-05T03:40:30.535Z,24.70
2018-09-05T03:41:35.064Z,24.70
2018-09-05T03:42:39.334Z,24.70
2018-09-05T03:43:43.796Z,24.70
2018-09-05T03:44:48.244Z,24.70
2018-09-05T03:45:52.618Z,24.70
2018-09-05T03:46:57.145Z,24.70
2018-09-05T03:48:01.658Z,24.70
2018-09-05T03:49:06.172Z,24.70
2018-09-05T03:50:10.448Z,24.70
2018-09-05T03:51:14.697Z,24.70
2018-09-05T03:52:19.013Z,24.70
2018-09-05T03:53:23.295Z,24.70
2018-09-05T03:54:27.606Z,24.70
2018-09-05T03:55:32.075Z,24.70
2018-09-05T03:56:36.350Z,24.70
2018-09-05T03:57:40.660Z,24.70
2018-09-05T03:58:45.124Z,24.70
2018-09-05T03:59:49.391Z,24.70
2018-09-05T04:00:53.848Z,24.70
2018-09-05T04:01:58.087Z,24.70
2018-09-05T04:03:02.676Z,24.70
2018-09-05T04:04:07.122Z,24.70
2018-09-05T04:05:11.626Z,24.70
2018-09-05T04:06:15.793Z,24.70
2018-09-05T04:07:20.241Z,24.70
2018-09-05T04:08:24.685Z,24.70
2018-09-05T04:09:28.985Z,24.70
2018-09-05T04:10:33.252Z,24.70
2018-09-05T04:11:37.594Z,24.70
2018-09-05T04:12:41.930Z,24.70
2018-09-05T04:13:46.562Z,24.70
2018-09-05T04:14:51.132Z,24.70
2018-09-05T04:15:55.490Z,24.70
2018-09-05T04:17:00.055Z,24.70
2018-09-05T04:18:04.562Z,24.70
2018-09-05T04:19:09.068Z,24.70
2018-09-05T04:20:13.474Z,24.70
2018-09-05T04:21:17.751Z,24.70
2018-09-05T04:22:22.029Z,24.70
2018-09-05T04:23:26.304Z,24.70
2018-09-05T04:24:30.748Z,24.70
2018-09-05T04:25:35.279Z,24.70
2018-09-05T04:26:39.525Z,24.70
2018-09-05T04:27:44.007Z,24.70
2018-09-05T04:28:48.502Z,24.70
2018-09-05T04:29:53.208Z,24.70
2018-09-05T04:30:57.594Z,24.70
2018-09-05T04:32:02.160Z,24.70
2018-09-05T04:33:06.636Z,24.70
2018-09-05T04:34:11.112Z,24.70
2018-09-05T04:35:15.599Z,24.70
2018-09-05T04:36:20.048Z,24.70
2018-09-05T04:37:24.294Z,24.70
2018-09-05T04:38:28.693Z,24.70
2018-09-05T04:39:32.955Z,24.70
2018-09-05T04:40:37.178Z,24.70
2018-09-05T04:41:41.691Z,24.70
2018-09-05T04:42:46.230Z,24.70
2018-09-05T04:43:50.708Z,24.70
2018-09-05T04:44:55.006Z,24.70
2018-09-05T04:45:59.389Z,24.70
2018-09-05T04:47:03.815Z,24.70
2018-09-05T04:48:08.297Z,24.70
2018-09-05T04:49:12.713Z,24.70
2018-09-05T04:50:17.321Z,24.70
2018-09-05T04:51:21.671Z,24.70
2018-09-05T04:52:25.921Z,24.70
2018-09-05T04:53:30.223Z,24.70
2018-09-05T04:54:34.773Z,24.70
2018-09-05T04:55:39.119Z,24.70
2018-09-05T04:56:43.741Z,24.70
2018-09-05T04:57:48.295Z,24.70
2018-09-05T04:58:52.775Z,24.70
2018-09-05T04:59:57.094Z,24.70
2018-09-05T05:01:01.607Z,24.70
2018-09-05T05:02:06.076Z,24.70
2018-09-05T05:03:10.561Z,24.70
2018-09-05T05:04:14.871Z,24.70
2018-09-05T05:05:19.174Z,24.70
2018-09-05T05:06:23.439Z,24.70
2018-09-05T05:07:27.911Z,24.70
2018-09-05T05:08:32.411Z,24.70
2018-09-05T05:09:36.903Z,24.70
2018-09-05T05:10:41.447Z,24.70
2018-09-05T05:11:45.751Z,24.70
2018-09-05T05:12:50.132Z,24.70
2018-09-05T05:13:54.589Z,24.70
2018-09-05T05:14:59.134Z,24.70
2018-09-05T05:16:03.662Z,24.70
2018-09-05T05:17:08.155Z,24.70
2018-09-05T05:18:12.499Z,24.70
2018-09-05T05:19:16.833Z,24.70
2018-09-05T05:20:21.160Z,24.70
2018-09-05T05:21:25.661Z,24.70
2018-09-05T05:22:29.983Z,24.70
2018-09-05T05:23:34.295Z,24.70
2018-09-05T05:24:38.616Z,24.70
2018-09-05T05:25:43.084Z,24.70
2018-09-05T05:26:47.421Z,24.70
2018-09-05T05:27:51.856Z,24.70
2018-09-05T05:28:56.321Z,24.70
2018-09-05T05:30:00.799Z,24.70
2018-09-05T05:31:05.297Z,24.70
2018-09-05T05:32:09.771Z,24.70
2018-09-05T05:33:14.211Z,24.70
2018-09-05T05:34:18.465Z,24.70
2018-09-05T05:35:22.816Z,24.70
2018-09-05T05:36:27.409Z,24.70
2018-09-05T05:37:31.709Z,24.70
2018-09-05T05:38:36.200Z,24.70
2018-09-05T05:39:41.836Z,24.70
2018-09-05T05:40:46.138Z,24.70
2018-09-05T05:41:50.586Z,24.70
2018-09-05T05:42:55.074Z,24.70
2018-09-05T05:43:59.556Z,24.70
2018-09-05T05:45:03.806Z,24.70
2018-09-05T05:46:08.081Z,24.70
2018-09-05T05:47:13.385Z,24.70
2018-09-05T05:48:17.672Z,24.70
2018-09-05T05:49:21.898Z,24.70
2018-09-05T05:50:26.147Z,24.70
2018-09-05T05:51:30.481Z,24.70
2018-09-05T05:52:34.920Z,24.70
2018-09-05T05:53:39.321Z,24.70
2018-09-05T05:54:44.117Z,24.70
2018-09-05T05:55:48.589Z,24.80
2018-09-05T05:56:53.289Z,24.70
2018-09-05T05:57:57.757Z,24.70
2018-09-05T05:59:02.009Z,24.80
2018-09-05T06:00:06.482Z,24.80
2018-09-05T06:01:11.130Z,24.80
2018-09-05T06:02:15.354Z,24.80
2018-09-05T06:03:19.604Z,24.80
2018-09-05T06:04:23.989Z,24.80
2018-09-05T06:05:29.172Z,24.70
2018-09-05T06:06:33.401Z,24.80
2018-09-05T06:07:37.645Z,24.80
2018-09-05T06:08:42.040Z,24.80
2018-09-05T06:09:46.338Z,24.70
2018-09-05T06:10:50.659Z,24.80
2018-09-05T06:11:55.101Z,24.80
2018-09-05T06:12:59.489Z,24.70
2018-09-05T06:14:03.735Z,24.70
2018-09-05T06:15:07.986Z,24.70
2018-09-05T06:16:12.284Z,24.70
2018-09-05T06:17:16.728Z,24.70
2018-09-05T06:18:20.951Z,24.70
2018-09-05T06:19:25.247Z,24.70
2018-09-05T06:20:29.819Z,24.70
2018-09-05T06:21:34.133Z,24.70
2018-09-05T06:22:38.672Z,24.70
2018-09-05T06:23:42.958Z,24.70
2018-09-05T06:24:47.397Z,24.70
2018-09-05T06:25:51.792Z,24.70
2018-09-05T06:26:56.205Z,24.70
2018-09-05T06:28:00.611Z,24.60
2018-09-05T06:29:05.047Z,24.60
2018-09-05T06:30:09.519Z,24.50
2018-09-05T06:31:13.870Z,24.50
2018-09-05T06:32:18.091Z,24.50
2018-09-05T06:33:22.543Z,24.50
2018-09-05T06:34:26.785Z,24.40
2018-09-05T06:35:31.183Z,24.40
2018-09-05T06:36:35.510Z,24.40
2018-09-05T06:37:39.727Z,24.30
2018-09-05T06:38:44.164Z,24.30
2018-09-05T06:39:48.604Z,24.30
2018-09-05T06:40:53.819Z,24.30
2018-09-05T06:41:58.248Z,24.30
2018-09-05T06:43:02.554Z,24.30
2018-09-05T06:44:06.968Z,24.30
2018-09-05T06:45:11.483Z,24.30
2018-09-05T06:46:15.621Z,24.30
2018-09-05T06:47:19.862Z,24.30
2018-09-05T06:48:24.092Z,24.30
2018-09-05T06:49:28.492Z,24.30
2018-09-05T06:50:33.861Z,24.30
2018-09-05T06:51:38.268Z,24.30
2018-09-05T06:52:42.732Z,24.30
2018-09-05T06:53:47.185Z,24.30
2018-09-05T06:54:51.430Z,24.30
2018-09-05T06:56:02.131Z,24.30
2018-09-05T06:57:06.496Z,24.30
2018-09-05T06:58:14.335Z,24.40
2018-09-05T06:59:18.758Z,24.40
2018-09-05T07:00:23.038Z,24.40
2018-09-05T07:01:27.272Z,24.40
2018-09-05T07:02:31.725Z,24.40
2018-09-05T07:03:36.175Z,24.50
2018-09-05T07:04:40.624Z,24.50
2018-09-05T07:05:45.052Z,24.50
2018-09-05T07:06:49.514Z,24.50
2018-09-05T07:08:06.460Z,24.50
2018-09-05T07:09:12.301Z,24.50
2018-09-05T07:10:20.339Z,24.50
2018-09-05T07:11:24.552Z,24.50
2018-09-05T07:14:51.083Z,24.50
2018-09-05T07:15:55.441Z,24.50
2018-09-05T07:16:59.831Z,24.50
2018-09-05T07:18:04.255Z,24.50
2018-09-05T07:19:08.718Z,24.50
2018-09-05T07:20:13.183Z,24.50
2018-09-05T07:21:17.684Z,24.50
2018-09-05T07:22:22.155Z,24.50
2018-09-05T07:23:26.673Z,24.50
2018-09-05T07:24:31.079Z,24.50
2018-09-05T07:25:35.452Z,24.50
2018-09-05T07:26:39.855Z,24.50
2018-09-05T07:27:44.231Z,24.50
2018-09-05T07:28:48.616Z,24.50
2018-09-05T07:29:53.124Z,24.50
2018-09-05T07:30:57.696Z,24.50
2018-09-05T07:32:02.218Z,24.50
2018-09-05T07:33:06.608Z,24.50
2018-09-05T07:34:11.076Z,24.50
2018-09-05T07:35:15.438Z,24.50
2018-09-05T07:36:19.795Z,24.50
2018-09-05T07:37:24.213Z,24.50
2018-09-05T07:38:28.654Z,24.50
2018-09-05T07:39:33.050Z,24.50
2018-09-05T07:40:37.367Z,24.50
2018-09-05T07:41:41.753Z,24.50
2018-09-05T07:42:46.239Z,24.50
2018-09-05T07:43:50.775Z,24.50
2018-09-05T07:44:55.550Z,24.50
2018-09-05T07:46:00.073Z,24.50
2018-09-05T07:47:04.653Z,24.50
2018-09-05T07:48:09.170Z,24.50
2018-09-05T07:49:13.459Z,24.50
2018-09-05T07:50:17.876Z,24.50
2018-09-05T07:51:22.364Z,24.50
2018-09-05T07:52:26.642Z,24.50
2018-09-05T07:53:31.249Z,24.50
2018-09-05T07:54:35.640Z,24.50
2018-09-05T07:55:40.195Z,24.50
2018-09-05T07:56:44.749Z,24.50
2018-09-05T07:57:49.276Z,24.50
2018-09-05T07:58:53.725Z,24.50
2018-09-05T07:59:58.066Z,24.50
2018-09-05T08:01:02.534Z,24.50
2018-09-05T08:02:07.041Z,24.50
2018-09-05T08:03:11.845Z,24.50
2018-09-05T08:04:16.207Z,24.50
2018-09-05T08:05:20.548Z,24.50
2018-09-05T08:06:24.913Z,24.50
2018-09-05T08:07:29.294Z,24.50
2018-09-05T08:08:33.774Z,24.50
2018-09-05T08:09:38.171Z,24.50
2018-09-05T08:10:42.541Z,24.50
2018-09-05T08:11:47.031Z,24.50
2018-09-05T08:12:51.334Z,24.50
2018-09-05T08:13:55.713Z,24.50
2018-09-05T08:15:00.043Z,24.50
2018-09-05T08:16:05.112Z,24.50
2018-09-05T08:17:09.640Z,24.50
2018-09-05T08:18:14.125Z,24.50
2018-09-05T08:19:18.611Z,24.50
2018-09-05T08:20:23.084Z,24.50
2018-09-05T08:21:27.498Z,24.50
2018-09-05T08:22:31.983Z,24.50
2018-09-05T08:23:36.349Z,24.50
2018-09-05T08:24:40.815Z,24.50
2018-09-05T08:25:45.268Z,24.50
2018-09-05T08:26:49.791Z,24.50
2018-09-05T08:27:54.272Z,24.50
2018-09-05T08:28:58.799Z,24.50
2018-09-05T08:30:03.183Z,24.50
2018-09-05T08:31:07.573Z,24.50
2018-09-05T08:32:12.016Z,24.50
2018-09-05T08:33:16.464Z,24.50
2018-09-05T08:34:20.942Z,24.50
2018-09-05T08:35:25.685Z,24.50
2018-09-05T08:36:29.973Z,24.50
2018-09-05T08:37:34.522Z,24.50
2018-09-05T08:38:38.626Z,24.50
2018-09-05T08:39:42.998Z,24.50
2018-09-05T08:40:47.325Z,24.50
2018-09-05T08:41:51.774Z,24.50
2018-09-05T08:42:56.146Z,24.50
2018-09-05T08:44:00.614Z,24.50
2018-09-05T08:45:05.014Z,24.50
2018-09-05T08:46:09.491Z,24.50
2018-09-05T08:47:13.926Z,24.50
2018-09-05T08:48:18.562Z,24.50
2018-09-05T08:49:22.823Z,24.50
2018-09-05T08:50:27.348Z,24.50
2018-09-05T08:51:31.805Z,24.50
2018-09-05T08:52:36.179Z,24.50
2018-09-05T08:53:41.666Z,24.50
2018-09-05T08:54:46.164Z,24.50
2018-09-05T08:55:50.581Z,24.50
2018-09-05T08:56:54.854Z,24.50
2018-09-05T08:57:59.203Z,24.50
2018-09-05T08:59:03.587Z,24.50
2018-09-05T09:00:07.898Z,24.50
2018-09-05T09:01:13.242Z,24.50
2018-09-05T09:02:17.578Z,24.50
2018-09-05T09:03:21.980Z,24.50
2018-09-05T09:04:26.429Z,24.50
2018-09-05T09:05:30.839Z,24.50
2018-09-05T09:06:35.229Z,24.50
2018-09-05T09:07:39.640Z,24.50
2018-09-05T09:08:44.067Z,24.50
2018-09-05T09:09:48.560Z,24.50
2018-09-05T09:10:53.011Z,24.50
2018-09-05T09:11:57.546Z,24.50
2018-09-05T09:13:02.078Z,24.50
2018-09-05T09:14:06.568Z,24.50
2018-09-05T09:15:10.974Z,24.50
2018-09-05T09:16:15.300Z,24.50
2018-09-05T09:17:19.739Z,24.50
2018-09-05T09:18:24.208Z,24.50
2018-09-05T09:19:28.675Z,24.50
2018-09-05T09:20:32.953Z,24.50
2018-09-05T09:21:37.284Z,24.50
2018-09-05T09:22:41.793Z,24.50
2018-09-05T09:23:46.111Z,24.50
2018-09-05T09:24:50.468Z,24.50
2018-09-05T09:25:54.920Z,24.50
2018-09-05T09:26:59.241Z,24.50
2018-09-05T09:28:03.786Z,24.50
2018-09-05T09:29:08.152Z,24.50
2018-09-05T09:30:12.437Z,24.50
2018-09-05T09:31:16.862Z,24.50
2018-09-05T09:32:21.281Z,24.50
2018-09-05T09:33:25.735Z,24.50
2018-09-05T09:34:30.245Z,24.50
2018-09-05T09:35:34.701Z,24.50
2018-09-05T09:36:39.219Z,24.50
2018-09-05T09:37:43.531Z,24.50
2018-09-05T09:38:48.224Z,24.50
2018-09-05T09:39:52.676Z,24.50
2018-09-05T09:40:57.190Z,24.50
2018-09-05T09:42:01.588Z,24.50
2018-09-05T09:43:05.888Z,24.50
2018-09-05T09:44:10.410Z,24.50
2018-09-05T09:45:14.832Z,24.50
2018-09-05T09:46:19.302Z,24.50
2018-09-05T09:47:23.760Z,24.50
2018-09-05T09:48:28.200Z,24.50
2018-09-05T09:49:32.567Z,24.50
2018-09-05T09:50:37.016Z,24.50
2018-09-05T09:51:41.989Z,24.50
2018-09-05T09:52:46.309Z,24.50
2018-09-05T09:53:50.720Z,24.50
2018-09-05T09:54:55.129Z,24.50
2018-09-05T09:55:59.543Z,24.50
2018-09-05T09:57:04.112Z,24.50
2018-09-05T09:58:08.661Z,24.50
2018-09-05T09:59:13.266Z,24.50
2018-09-05T10:00:17.635Z,24.50
2018-09-05T10:01:22.069Z,24.50
2018-09-05T10:02:26.498Z,24.50
2018-09-05T10:03:31.084Z,24.50
2018-09-05T10:04:35.401Z,24.50
2018-09-05T10:05:39.785Z,24.50
2018-09-05T10:06:44.223Z,24.50
2018-09-05T10:07:48.564Z,24.50
2018-09-05T10:08:52.959Z,24.50
2018-09-05T10:09:57.519Z,24.50
2018-09-05T10:11:01.900Z,24.50
2018-09-05T10:12:07.751Z,24.50
2018-09-05T10:13:12.243Z,24.50
2018-09-05T10:14:16.803Z,24.50
2018-09-05T10:15:21.149Z,24.50
2018-09-05T10:16:25.536Z,24.50
2018-09-05T10:17:30.050Z,24.50
2018-09-05T10:18:34.497Z,24.50
2018-09-05T10:19:38.914Z,24.50
2018-09-05T10:20:43.453Z,24.50
2018-09-05T10:21:48.030Z,24.50
2018-09-05T10:22:54.007Z,24.50
2018-09-05T10:23:58.579Z,24.50
2018-09-05T10:25:03.034Z,24.50
2018-09-05T10:26:07.514Z,24.50
2018-09-05T10:27:12.047Z,24.50
2018-09-05T10:28:16.475Z,24.50
2018-09-05T10:29:20.823Z,24.50
2018-09-05T10:30:25.534Z,24.50
2018-09-05T10:31:29.972Z,24.50
2018-09-05T10:32:34.654Z,24.50
2018-09-05T10:33:39.154Z,24.60
2018-09-05T10:34:43.630Z,24.50
2018-09-05T10:35:48.669Z,24.50
2018-09-05T10:36:53.133Z,24.50
2018-09-05T10:37:57.492Z,24.50
2018-09-05T10:39:01.981Z,24.50
2018-09-05T10:40:06.450Z,24.60
2018-09-05T10:41:11.075Z,24.60
2018-09-05T10:42:15.455Z,24.60
2018-09-05T10:43:20.087Z,24.50
2018-09-05T10:44:24.551Z,24.50
2018-09-05T10:45:29.023Z,24.50
2018-09-05T10:46:33.491Z,24.50
2018-09-05T10:47:38.684Z,24.50
2018-09-05T10:48:43.201Z,24.50
2018-09-05T10:49:47.684Z,24.50
2018-09-05T10:50:52.119Z,24.50
2018-09-05T10:51:56.790Z,24.50
2018-09-05T10:53:01.267Z,24.50
2018-09-05T10:54:05.603Z,24.50
2018-09-05T10:55:10.086Z,24.50
2018-09-05T10:56:15.724Z,24.50
2018-09-05T10:57:20.314Z,24.50
2018-09-05T10:58:24.715Z,24.50
2018-09-05T10:59:28.988Z,24.50
2018-09-05T11:00:33.299Z,24.50
2018-09-05T11:01:37.783Z,24.50
2018-09-05T11:02:42.121Z,24.50
2018-09-05T11:03:46.454Z,24.50
2018-09-05T11:04:50.771Z,24.50
2018-09-05T11:05:55.076Z,24.50
2018-09-05T11:06:59.608Z,24.50
2018-09-05T11:08:04.101Z,24.50
2018-09-05T11:09:08.490Z,24.50
2018-09-05T11:10:12.891Z,24.50
2018-09-05T11:11:17.245Z,24.50
2018-09-05T11:12:21.758Z,24.50
2018-09-05T11:13:26.264Z,24.50
2018-09-05T11:14:30.771Z,24.50
2018-09-05T11:15:35.148Z,24.50
2018-09-05T11:16:39.645Z,24.60
2018-09-05T11:17:43.998Z,24.60
2018-09-05T11:18:48.458Z,24.60
2018-09-05T11:19:52.966Z,24.60
2018-09-05T11:20:57.373Z,24.60
2018-09-05T11:22:02.208Z,24.60
2018-09-05T11:23:06.536Z,24.60
2018-09-05T11:24:10.906Z,24.60
2018-09-05T11:25:15.917Z,24.60
2018-09-05T11:26:20.352Z,24.60
2018-09-05T11:27:24.689Z,24.60
2018-09-05T11:28:29.076Z,24.60
2018-09-05T11:29:33.533Z,24.60
2018-09-05T11:30:37.889Z,24.60
2018-09-05T11:31:42.204Z,24.60
2018-09-05T11:32:46.575Z,24.60
2018-09-05T11:33:50.882Z,24.60
2018-09-05T11:34:55.212Z,24.60
2018-09-05T11:35:59.711Z,24.60
2018-09-05T11:37:04.139Z,24.60
2018-09-05T11:38:08.520Z,24.60
2018-09-05T11:39:13.007Z,24.70
2018-09-05T11:40:17.512Z,24.70
2018-09-05T11:41:21.952Z,24.70
2018-09-05T11:42:26.537Z,24.70
2018-09-05T11:43:30.987Z,24.70
2018-09-05T11:44:35.315Z,24.70
2018-09-05T11:45:39.835Z,24.70
2018-09-05T11:46:44.252Z,24.70
2018-09-05T11:47:48.760Z,24.70
2018-09-05T11:48:53.290Z,24.80
2018-09-05T11:49:57.783Z,24.80
2018-09-05T11:51:02.296Z,24.80
2018-09-05T11:52:06.627Z,24.80
2018-09-05T11:53:10.932Z,24.80
2018-09-05T11:54:15.434Z,24.80
2018-09-05T11:55:19.836Z,24.80
2018-09-05T11:56:24.204Z,24.80
2018-09-05T11:57:28.711Z,24.80
2018-09-05T11:58:33.125Z,24.80
2018-09-05T11:59:37.563Z,24.80
2018-09-05T12:00:41.976Z,24.80
2018-09-05T12:01:46.450Z,24.80
2018-09-05T12:02:50.893Z,24.80
2018-09-05T12:03:55.282Z,24.80
2018-09-05T12:04:59.745Z,24.80
2018-09-05T12:06:04.225Z,24.90
2018-09-05T12:07:08.657Z,24.90
2018-09-05T12:08:13.077Z,24.90
2018-09-05T12:09:17.544Z,24.90
2018-09-05T12:10:21.924Z,24.90
2018-09-05T12:11:26.462Z,24.90
2018-09-05T12:12:30.950Z,24.90
2018-09-05T12:13:35.459Z,24.90
2018-09-05T12:14:39.834Z,24.90
2018-09-05T12:15:44.368Z,24.90
2018-09-05T12:16:48.758Z,24.90
2018-09-05T12:17:53.155Z,24.90
2018-09-05T12:18:57.614Z,24.90
2018-09-05T12:20:02.151Z,24.90
2018-09-05T12:21:06.485Z,24.90
2018-09-05T12:22:10.937Z,24.90
2018-09-05T12:23:15.337Z,24.90
2018-09-05T12:24:19.812Z,24.90
2018-09-05T12:25:24.291Z,24.90
2018-09-05T12:26:28.768Z,24.90
2018-09-05T12:27:33.112Z,24.90
2018-09-05T12:28:37.449Z,24.90
2018-09-05T12:29:41.763Z,24.90
2018-09-05T12:30:46.084Z,24.90
2018-09-05T12:31:50.534Z,24.90
2018-09-05T12:32:54.969Z,24.90
2018-09-05T12:34:02.085Z,24.90
2018-09-05T12:35:06.526Z,24.90
2018-09-05T12:36:12.121Z,25.00
2018-09-05T12:37:16.652Z,25.00
2018-09-05T12:38:21.081Z,25.00
2018-09-05T12:39:25.398Z,25.00
2018-09-05T12:40:29.717Z,25.00
2018-09-05T12:41:34.040Z,25.00
2018-09-05T12:42:38.336Z,25.00
2018-09-05T12:43:42.700Z,25.00
2018-09-05T12:44:47.112Z,25.00
2018-09-05T12:45:51.361Z,25.00
2018-09-05T12:46:55.817Z,25.00
2018-09-05T12:48:00.123Z,25.00
2018-09-05T12:49:04.542Z,25.00
2018-09-05T12:50:09.090Z,25.00
2018-09-05T12:51:13.658Z,25.00
2018-09-05T12:52:18.218Z,25.00
2018-09-05T12:53:23.090Z,25.00
2018-09-05T12:54:27.111Z,25.00
2018-09-05T12:55:31.636Z,25.00
2018-09-05T12:56:36.373Z,25.00
2018-09-05T12:57:41.023Z,25.00
2018-09-05T12:58:45.399Z,25.00
2018-09-05T12:59:49.948Z,25.00
2018-09-05T13:00:54.351Z,25.00
2018-09-05T13:01:58.742Z,25.00
2018-09-05T13:03:03.265Z,25.00
2018-09-05T13:04:07.756Z,25.10
2018-09-05T13:05:12.252Z,25.10
2018-09-05T13:06:16.584Z,25.10
2018-09-05T13:07:21.020Z,25.10
2018-09-05T13:08:25.464Z,25.10
2018-09-05T13:09:30.278Z,25.10
2018-09-05T13:10:34.961Z,25.10
2018-09-05T13:11:39.270Z,25.10
2018-09-05T13:12:43.666Z,25.10
2018-09-05T13:13:48.136Z,25.10
2018-09-05T13:14:53.326Z,25.10
2018-09-05T13:15:57.792Z,25.10
2018-09-05T13:17:02.143Z,25.10
2018-09-05T13:18:06.698Z,25.10
2018-09-05T13:19:11.025Z,25.10
2018-09-05T13:20:15.378Z,25.10
2018-09-05T13:21:19.944Z,25.10
2018-09-05T13:22:24.297Z,25.10
2018-09-05T13:23:28.759Z,25.00
2018-09-05T13:24:33.088Z,25.10
2018-09-05T13:25:37.409Z,25.10
2018-09-05T13:26:41.780Z,25.10
2018-09-05T13:27:46.246Z,25.00
2018-09-05T13:28:50.723Z,25.00
2018-09-05T13:29:55.064Z,25.00
2018-09-05T13:30:59.445Z,25.00
2018-09-05T13:32:03.790Z,25.00
2018-09-05T13:33:08.251Z,25.00
2018-09-05T13:34:12.574Z,25.00
2018-09-05T13:35:17.058Z,25.00
2018-09-05T13:36:21.622Z,25.00
2018-09-05T13:37:26.012Z,25.00
2018-09-05T13:38:30.549Z,25.00
2018-09-05T13:39:34.812Z,25.00
2018-09-05T13:40:39.176Z,25.00
2018-09-05T13:41:43.582Z,25.00
2018-09-05T13:42:47.995Z,25.00
2018-09-05T13:43:52.422Z,25.00
2018-09-05T13:44:56.809Z,25.00
2018-09-05T13:46:01.159Z,25.00
2018-09-05T13:47:05.618Z,25.00
2018-09-05T13:48:10.090Z,25.00
2018-09-05T13:49:14.462Z,25.00
2018-09-05T13:50:19.017Z,25.00
2018-09-05T13:51:23.498Z,25.00
2018-09-05T13:52:27.900Z,25.00